createdAt,value
2023-02-17T00:00:09.947Z,74.84
2023-02-17T00:01:09.933Z,75.15
2023-02-17T00:02:09.947Z,74.67
2023-02-17T00:03:09.941Z,74.77
2023-02-17T00:04:09.902Z,74.88
2023-02-17T00:05:09.880Z,75.70
2023-02-17T00:06:09.876Z,76.01
2023-02-17T00:07:09.854Z,76.73
2023-02-17T00:08:09.853Z,77.15
2023-02-17T00:09:09.834Z,77.46
2023-02-17T00:10:09.815Z,77.46
2023-02-17T00:11:09.812Z,77.67
2023-02-17T00:12:09.813Z,77.60
2023-02-17T00:13:09.785Z,77.50
2023-02-17T00:14:09.760Z,76.87
2023-02-17T00:15:09.756Z,76.77
2023-02-17T00:16:09.865Z,75.53
2023-02-17T00:17:09.740Z,76.15
2023-02-17T00:18:09.706Z,76.87
2023-02-17T00:19:09.718Z,75.15
2023-02-17T00:20:09.686Z,76.09
2023-02-17T00:21:09.677Z,76.91
2023-02-17T00:22:09.660Z,76.29
2023-02-17T00:23:09.645Z,75.57
2023-02-17T00:24:09.638Z,75.57
2023-02-17T00:25:09.624Z,76.39
2023-02-17T00:26:09.622Z,76.70
2023-02-17T00:27:09.600Z,75.98
2023-02-17T00:28:09.580Z,75.50
2023-02-17T00:29:09.569Z,75.60
2023-02-17T00:30:09.641Z,76.53
2023-02-17T00:31:09.689Z,76.84
2023-02-17T00:32:09.772Z,77.47
2023-02-17T00:33:09.515Z,77.36
2023-02-17T00:34:09.510Z,77.67
2023-02-17T00:35:09.520Z,77.98
2023-02-17T00:36:09.489Z,77.50
2023-02-17T00:37:09.465Z,77.09
2023-02-17T00:38:09.470Z,77.39
2023-02-17T00:39:09.445Z,77.29
2023-02-17T00:40:09.431Z,77.09
2023-02-17T00:41:09.422Z,78.12
2023-02-17T00:42:09.411Z,78.33
2023-02-17T00:43:09.400Z,77.81
2023-02-17T00:44:09.382Z,77.81
2023-02-17T00:45:09.372Z,78.22
2023-02-17T00:46:09.533Z,78.64
2023-02-17T00:47:09.346Z,78.74
2023-02-17T00:48:09.325Z,78.12
2023-02-17T00:49:09.311Z,78.12
2023-02-17T00:50:09.311Z,78.53
2023-02-17T00:51:09.312Z,79.09
2023-02-17T00:52:09.293Z,78.33
2023-02-17T00:53:09.273Z,78.43
2023-02-17T00:54:09.257Z,77.95
2023-02-17T00:55:09.295Z,77.91
2023-02-17T00:56:09.257Z,77.81
2023-02-17T00:57:09.208Z,77.81
2023-02-17T00:58:09.206Z,77.81
2023-02-17T00:59:09.188Z,78.33
2023-02-17T01:00:09.171Z,78.74
2023-02-17T01:01:09.159Z,79.16
2023-02-17T01:02:09.152Z,79.57
2023-02-17T01:03:09.140Z,78.74
2023-02-17T01:04:09.127Z,78.53
2023-02-17T01:05:09.121Z,79.26
2023-02-17T01:06:09.093Z,79.88
2023-02-17T01:07:09.111Z,79.47
2023-02-17T01:08:09.076Z,78.85
2023-02-17T01:09:09.053Z,79.05
2023-02-17T01:10:09.044Z,79.67
2023-02-17T01:11:09.035Z,79.09
2023-02-17T01:12:09.018Z,79.60
2023-02-17T01:13:09.000Z,79.71
2023-02-17T01:14:08.998Z,79.81
2023-02-17T01:15:08.987Z,79.40
2023-02-17T01:16:09.021Z,79.13
2023-02-17T01:17:08.964Z,79.23
2023-02-17T01:18:08.960Z,79.44
2023-02-17T01:19:08.954Z,80.16
2023-02-17T01:20:08.960Z,80.16
2023-02-17T01:21:08.906Z,80.19
2023-02-17T01:22:08.904Z,80.51
2023-02-17T01:23:08.924Z,80.40
2023-02-17T01:24:08.862Z,80.19
2023-02-17T01:25:08.862Z,80.61
2023-02-17T01:26:08.837Z,81.02
2023-02-17T01:27:08.832Z,80.71
2023-02-17T01:28:08.812Z,80.30
2023-02-17T01:29:08.805Z,80.40
2023-02-17T01:30:08.838Z,80.51
2023-02-17T01:31:08.925Z,80.40
2023-02-17T01:32:08.761Z,80.19
2023-02-17T01:33:08.753Z,79.99
2023-02-17T01:34:08.742Z,79.68
2023-02-17T01:35:08.731Z,79.16
2023-02-17T01:36:08.714Z,78.96
2023-02-17T01:37:08.699Z,78.85
2023-02-17T01:38:08.683Z,78.92
2023-02-17T01:39:08.707Z,78.61
2023-02-17T01:40:08.660Z,78.30
2023-02-17T01:41:08.640Z,78.09
2023-02-17T01:42:08.634Z,77.95
2023-02-17T01:43:08.618Z,77.95
2023-02-17T01:44:08.596Z,77.64
2023-02-17T01:45:08.585Z,77.64
2023-02-17T01:46:08.577Z,77.33
2023-02-17T01:47:08.554Z,77.50
2023-02-17T01:48:08.544Z,76.67
2023-02-17T01:49:08.538Z,76.36
2023-02-17T01:50:08.525Z,75.70
2023-02-17T01:51:08.505Z,75.40
2023-02-17T01:52:08.502Z,74.95
2023-02-17T01:53:08.491Z,74.95
2023-02-17T01:54:08.467Z,75.15
2023-02-17T01:55:08.480Z,75.26
2023-02-17T01:56:08.449Z,75.15
2023-02-17T01:57:08.433Z,74.84
2023-02-17T01:58:08.420Z,75.01
2023-02-17T01:59:08.416Z,74.71
2023-02-17T02:00:08.393Z,74.71
2023-02-17T02:01:08.376Z,74.08
2023-02-17T02:02:08.498Z,74.26
2023-02-17T02:03:08.369Z,74.57
2023-02-17T02:04:08.334Z,74.36
2023-02-17T02:05:08.331Z,74.12
2023-02-17T02:06:08.306Z,73.71
2023-02-17T02:07:08.303Z,74.02
2023-02-17T02:08:08.279Z,73.81
2023-02-17T02:09:08.276Z,74.02
2023-02-17T02:10:08.256Z,74.02
2023-02-17T02:11:08.272Z,73.88
2023-02-17T02:12:08.236Z,73.98
2023-02-17T02:13:08.221Z,73.36
2023-02-17T02:14:08.212Z,73.26
2023-02-17T02:15:08.195Z,73.12
2023-02-17T02:16:08.642Z,73.43
2023-02-17T02:17:08.200Z,73.43
2023-02-17T02:18:08.155Z,74.05
2023-02-17T02:19:08.152Z,73.74
2023-02-17T02:20:08.141Z,73.64
2023-02-17T02:21:08.118Z,73.74
2023-02-17T02:22:08.115Z,73.85
2023-02-17T02:23:08.102Z,73.85
2023-02-17T02:24:08.077Z,74.15
2023-02-17T02:25:08.073Z,74.15
2023-02-17T02:26:08.421Z,73.91
2023-02-17T02:27:08.064Z,73.91
2023-02-17T02:28:08.032Z,73.81
2023-02-17T02:29:08.016Z,73.91
2023-02-17T02:30:08.038Z,74.43
2023-02-17T02:31:08.032Z,74.02
2023-02-17T02:32:07.978Z,74.33
2023-02-17T02:33:07.980Z,74.43
2023-02-17T02:34:07.959Z,74.33
2023-02-17T02:35:07.948Z,74.22
2023-02-17T02:36:08.188Z,74.22
2023-02-17T02:37:07.913Z,74.19
2023-02-17T02:38:07.906Z,73.98
2023-02-17T02:39:07.892Z,73.57
2023-02-17T02:40:07.869Z,74.40
2023-02-17T02:41:07.869Z,74.19
2023-02-17T02:42:07.845Z,74.40
2023-02-17T02:43:07.865Z,74.50
2023-02-17T02:44:07.825Z,74.71
2023-02-17T02:45:07.814Z,74.29
2023-02-17T02:46:08.240Z,74.08
2023-02-17T02:47:07.786Z,74.19
2023-02-17T02:48:07.768Z,74.16
2023-02-17T02:49:07.766Z,74.08
2023-02-17T02:50:07.737Z,74.16
2023-02-17T02:51:07.734Z,74.36
2023-02-17T02:52:07.717Z,74.05
2023-02-17T02:53:07.699Z,74.05
2023-02-17T02:54:07.686Z,74.26
2023-02-17T02:55:07.671Z,73.74
2023-02-17T02:56:07.982Z,74.16
2023-02-17T02:57:07.650Z,74.05
2023-02-17T02:58:07.640Z,74.36
2023-02-17T02:59:07.642Z,74.60
2023-02-17T03:00:07.612Z,74.29
2023-02-17T03:01:07.704Z,73.95
2023-02-17T03:02:07.585Z,74.46
2023-02-17T03:03:07.564Z,74.36
2023-02-17T03:04:07.603Z,74.26
2023-02-17T03:05:07.552Z,74.26
2023-02-17T03:06:07.978Z,73.85
2023-02-17T03:07:07.509Z,73.64
2023-02-17T03:08:07.505Z,73.85
2023-02-17T03:09:07.500Z,74.05
2023-02-17T03:10:07.469Z,73.95
2023-02-17T03:11:07.464Z,73.85
2023-02-17T03:12:07.451Z,74.26
2023-02-17T03:13:07.438Z,74.36
2023-02-17T03:14:07.423Z,74.46
2023-02-17T03:15:07.437Z,74.26
2023-02-17T03:16:07.714Z,74.26
2023-02-17T03:17:07.387Z,73.95
2023-02-17T03:18:07.371Z,74.05
2023-02-17T03:19:07.364Z,74.57
2023-02-17T03:20:07.336Z,74.57
2023-02-17T03:21:07.335Z,74.46
2023-02-17T03:22:07.317Z,74.36
2023-02-17T03:23:07.330Z,74.88
2023-02-17T03:24:07.297Z,74.98
2023-02-17T03:25:07.271Z,74.36
2023-02-17T03:26:07.568Z,74.98
2023-02-17T03:27:07.263Z,74.88
2023-02-17T03:28:07.242Z,74.77
2023-02-17T03:29:07.234Z,74.88
2023-02-17T03:30:07.268Z,74.36
2023-02-17T03:31:07.292Z,74.33
2023-02-17T03:32:07.226Z,74.36
2023-02-17T03:33:07.164Z,74.46
2023-02-17T03:34:07.155Z,74.77
2023-02-17T03:35:07.143Z,74.33
2023-02-17T03:36:07.477Z,74.12
2023-02-17T03:37:07.108Z,74.53
2023-02-17T03:38:07.109Z,74.74
2023-02-17T03:39:07.089Z,74.63
2023-02-17T03:40:07.118Z,74.43
2023-02-17T03:41:07.058Z,74.53
2023-02-17T03:42:07.050Z,74.84
2023-02-17T03:43:07.039Z,74.12
2023-02-17T03:44:07.040Z,74.53
2023-02-17T03:45:07.034Z,74.74
2023-02-17T03:46:07.381Z,74.63
2023-02-17T03:47:07.005Z,74.63
2023-02-17T03:48:06.974Z,74.63
2023-02-17T03:49:06.963Z,74.46
2023-02-17T03:50:06.949Z,74.46
2023-02-17T03:51:06.931Z,74.46
2023-02-17T03:52:06.915Z,74.26
2023-02-17T03:53:06.899Z,74.36
2023-02-17T03:54:06.884Z,74.36
2023-02-17T03:55:06.878Z,74.57
2023-02-17T03:56:07.132Z,74.67
2023-02-17T03:57:06.858Z,75.08
2023-02-17T03:58:06.832Z,75.39
2023-02-17T03:59:06.826Z,74.88
2023-02-17T04:00:06.802Z,74.36
2023-02-17T04:01:06.907Z,74.57
2023-02-17T04:02:06.779Z,74.67
2023-02-17T04:03:06.812Z,74.88
2023-02-17T04:04:06.863Z,74.67
2023-02-17T04:05:06.747Z,74.26
2023-02-17T04:06:07.127Z,74.05
2023-02-17T04:07:06.706Z,74.26
2023-02-17T04:08:06.702Z,73.85
2023-02-17T04:09:06.695Z,74.16
2023-02-17T04:10:09.167Z,74.26
2023-02-17T04:11:06.668Z,74.26
2023-02-17T04:12:06.644Z,74.46
2023-02-17T04:13:06.658Z,74.36
2023-02-17T04:14:06.617Z,74.26
2023-02-17T04:15:06.618Z,74.16
2023-02-17T04:16:06.914Z,74.05
2023-02-17T04:17:06.575Z,73.74
2023-02-17T04:18:06.570Z,74.05
2023-02-17T04:19:06.585Z,74.08
2023-02-17T04:20:06.561Z,73.98
2023-02-17T04:21:06.531Z,74.29
2023-02-17T04:22:06.519Z,74.40
2023-02-17T04:23:06.497Z,74.80
2023-02-17T04:24:06.498Z,74.91
2023-02-17T04:25:06.483Z,74.71
2023-02-17T04:26:06.842Z,74.71
2023-02-17T04:27:06.452Z,74.91
2023-02-17T04:28:06.438Z,75.22
2023-02-17T04:29:06.420Z,75.67
2023-02-17T04:30:06.440Z,75.87
2023-02-17T04:31:06.538Z,75.77
2023-02-17T04:32:06.444Z,75.77
2023-02-17T04:33:06.368Z,76.18
2023-02-17T04:34:06.361Z,76.18
2023-02-17T04:35:06.386Z,76.39
2023-02-17T04:36:06.640Z,76.39
2023-02-17T04:37:06.328Z,76.29
2023-02-17T04:38:06.303Z,76.08
2023-02-17T04:39:06.301Z,77.11
2023-02-17T04:40:06.279Z,77.22
2023-02-17T04:41:06.324Z,77.11
2023-02-17T04:42:06.248Z,76.80
2023-02-17T04:43:06.254Z,76.84
2023-02-17T04:44:06.231Z,76.94
2023-02-17T04:45:06.216Z,77.04
2023-02-17T04:46:06.704Z,77.45
2023-02-17T04:47:06.200Z,77.15
2023-02-17T04:48:06.181Z,77.35
2023-02-17T04:49:06.166Z,77.66
2023-02-17T04:50:06.156Z,77.45
2023-02-17T04:51:07.185Z,77.15
2023-02-17T04:52:06.118Z,77.56
2023-02-17T04:53:06.105Z,77.56
2023-02-17T04:54:06.108Z,77.66
2023-02-17T04:55:06.089Z,77.56
2023-02-17T04:56:06.449Z,77.97
2023-02-17T04:57:06.054Z,78.18
2023-02-17T04:58:06.064Z,77.97
2023-02-17T04:59:06.030Z,77.87
2023-02-17T05:00:06.039Z,77.66
2023-02-17T05:01:06.059Z,77.62
2023-02-17T05:02:05.990Z,77.52
2023-02-17T05:03:05.976Z,77.31
2023-02-17T05:04:05.963Z,77.01
2023-02-17T05:05:06.012Z,76.90
2023-02-17T05:06:06.286Z,76.70
2023-02-17T05:07:05.960Z,77.01
2023-02-17T05:08:05.917Z,77.01
2023-02-17T05:09:05.904Z,77.31
2023-02-17T05:10:05.899Z,77.73
2023-02-17T05:11:05.872Z,76.70
2023-02-17T05:12:05.859Z,76.90
2023-02-17T05:13:05.856Z,77.22
2023-02-17T05:14:05.836Z,76.70
2023-02-17T05:15:05.833Z,76.80
2023-02-17T05:16:06.210Z,77.08
2023-02-17T05:17:05.801Z,77.01
2023-02-17T05:18:05.801Z,77.01
2023-02-17T05:19:05.785Z,77.01
2023-02-17T05:20:05.770Z,76.97
2023-02-17T05:21:05.751Z,77.08
2023-02-17T05:22:05.727Z,76.66
2023-02-17T05:23:05.747Z,76.76
2023-02-17T05:24:05.712Z,76.76
2023-02-17T05:25:05.700Z,77.18
2023-02-17T05:26:06.101Z,77.08
2023-02-17T05:27:05.681Z,77.28
2023-02-17T05:28:05.665Z,76.97
2023-02-17T05:29:05.642Z,77.28
2023-02-17T05:30:05.659Z,77.48
2023-02-17T05:31:05.700Z,77.48
2023-02-17T05:32:05.640Z,77.38
2023-02-17T05:33:05.595Z,77.59
2023-02-17T05:34:05.581Z,77.28
2023-02-17T05:35:05.564Z,76.97
2023-02-17T05:36:05.938Z,77.08
2023-02-17T05:37:05.546Z,77.18
2023-02-17T05:38:05.528Z,76.93
2023-02-17T05:39:05.540Z,77.04
2023-02-17T05:40:05.503Z,77.14
2023-02-17T05:41:05.490Z,76.83
2023-02-17T05:42:05.483Z,76.83
2023-02-17T05:43:05.460Z,76.93
2023-02-17T05:44:05.475Z,76.73
2023-02-17T05:45:05.437Z,76.73
2023-02-17T05:46:05.862Z,76.42
2023-02-17T05:47:05.408Z,76.53
2023-02-17T05:48:05.420Z,76.42
2023-02-17T05:49:05.395Z,76.53
2023-02-17T05:50:05.384Z,76.42
2023-02-17T05:51:05.361Z,76.53
2023-02-17T05:52:05.353Z,76.42
2023-02-17T05:53:05.341Z,76.53
2023-02-17T05:54:05.321Z,76.53
2023-02-17T05:55:05.372Z,76.63
2023-02-17T05:56:05.750Z,76.73
2023-02-17T05:57:05.279Z,76.83
2023-02-17T05:58:05.279Z,76.93
2023-02-17T05:59:05.254Z,76.73
2023-02-17T06:00:05.266Z,77.14
2023-02-17T06:01:05.241Z,76.83
2023-02-17T06:02:05.218Z,77.04
2023-02-17T06:03:05.249Z,77.14
2023-02-17T06:04:05.200Z,76.93
2023-02-17T06:05:05.259Z,77.04
2023-02-17T06:06:05.520Z,76.93
2023-02-17T06:07:05.159Z,77.04
2023-02-17T06:08:05.161Z,76.83
2023-02-17T06:09:05.137Z,76.83
2023-02-17T06:10:05.114Z,76.83
2023-02-17T06:11:05.127Z,76.83
2023-02-17T06:12:05.098Z,77.25
2023-02-17T06:13:05.076Z,76.93
2023-02-17T06:14:05.066Z,77.35
2023-02-17T06:15:05.056Z,77.38
2023-02-17T06:16:05.561Z,77.28
2023-02-17T06:17:05.045Z,77.38
2023-02-17T06:18:05.012Z,77.69
2023-02-17T06:19:05.007Z,77.90
2023-02-17T06:20:04.999Z,77.90
2023-02-17T06:21:04.973Z,78.21
2023-02-17T06:22:04.971Z,78.21
2023-02-17T06:23:04.956Z,78.21
2023-02-17T06:24:04.941Z,78.41
2023-02-17T06:25:04.928Z,78.41
2023-02-17T06:26:05.278Z,78.62
2023-02-17T06:27:04.925Z,78.62
2023-02-17T06:28:04.896Z,78.93
2023-02-17T06:29:04.876Z,79.03
2023-02-17T06:30:04.885Z,78.62
2023-02-17T06:31:04.920Z,78.41
2023-02-17T06:32:04.915Z,78.72
2023-02-17T06:33:04.818Z,78.62
2023-02-17T06:34:06.645Z,78.62
2023-02-17T06:35:04.791Z,78.79
2023-02-17T06:36:05.242Z,78.48
2023-02-17T06:37:04.766Z,78.48
2023-02-17T06:38:04.857Z,78.38
2023-02-17T06:39:04.731Z,78.48
2023-02-17T06:40:04.729Z,78.48
2023-02-17T06:41:04.729Z,78.69
2023-02-17T06:42:04.693Z,78.58
2023-02-17T06:43:04.708Z,78.69
2023-02-17T06:44:04.675Z,78.44
2023-02-17T06:45:04.656Z,78.65
2023-02-17T06:46:05.077Z,78.75
2023-02-17T06:47:04.635Z,78.75
2023-02-17T06:48:04.630Z,78.44
2023-02-17T06:49:04.611Z,78.55
2023-02-17T06:50:04.590Z,78.44
2023-02-17T06:51:04.584Z,78.44
2023-02-17T06:52:04.569Z,78.75
2023-02-17T06:53:04.554Z,78.44
2023-02-17T06:54:04.541Z,78.51
2023-02-17T06:55:04.529Z,78.61
2023-02-17T06:56:04.944Z,78.51
2023-02-17T06:57:04.505Z,78.51
2023-02-17T06:58:04.491Z,78.51
2023-02-17T06:59:04.528Z,78.41
2023-02-17T07:00:04.476Z,78.61
2023-02-17T07:01:04.455Z,78.17
2023-02-17T07:02:04.554Z,78.37
2023-02-17T07:03:04.621Z,78.37
2023-02-17T07:04:04.407Z,78.17
2023-02-17T07:05:04.398Z,78.17
2023-02-17T07:06:04.639Z,78.06
2023-02-17T07:07:04.379Z,77.75
2023-02-17T07:08:04.377Z,78.06
2023-02-17T07:09:04.352Z,77.75
2023-02-17T07:10:04.334Z,77.65
2023-02-17T07:11:04.328Z,77.96
2023-02-17T07:12:04.314Z,77.75
2023-02-17T07:13:04.307Z,77.92
2023-02-17T07:14:04.295Z,77.82
2023-02-17T07:15:04.303Z,77.62
2023-02-17T07:16:04.534Z,77.72
2023-02-17T07:17:04.245Z,77.72
2023-02-17T07:18:04.244Z,77.62
2023-02-17T07:19:04.232Z,77.62
2023-02-17T07:20:04.214Z,77.92
2023-02-17T07:21:04.194Z,77.82
2023-02-17T07:22:04.183Z,77.72
2023-02-17T07:23:04.177Z,77.62
2023-02-17T07:24:04.156Z,77.82
2023-02-17T07:25:04.153Z,77.72
2023-02-17T07:26:04.668Z,77.72
2023-02-17T07:27:04.133Z,77.62
2023-02-17T07:28:04.128Z,77.92
2023-02-17T07:29:04.092Z,77.62
2023-02-17T07:30:04.136Z,77.62
2023-02-17T07:31:04.141Z,77.72
2023-02-17T07:32:04.222Z,77.62
2023-02-17T07:33:06.648Z,77.37
2023-02-17T07:34:04.037Z,77.58
2023-02-17T07:35:04.028Z,77.17
2023-02-17T07:36:04.388Z,77.17
2023-02-17T07:37:04.012Z,76.97
2023-02-17T07:38:03.993Z,76.97
2023-02-17T07:39:03.977Z,76.55
2023-02-17T07:40:03.966Z,76.86
2023-02-17T07:41:03.953Z,76.55
2023-02-17T07:42:03.920Z,76.97
2023-02-17T07:43:03.925Z,76.86
2023-02-17T07:44:03.919Z,77.17
2023-02-17T07:45:03.889Z,77.37
2023-02-17T07:46:04.146Z,77.37
2023-02-17T07:47:03.910Z,77.48
2023-02-17T07:48:03.847Z,77.27
2023-02-17T07:49:03.846Z,77.48
2023-02-17T07:50:03.837Z,77.37
2023-02-17T07:51:03.830Z,77.58
2023-02-17T07:52:05.281Z,77.17
2023-02-17T07:53:03.788Z,77.68
2023-02-17T07:54:03.777Z,77.68
2023-02-17T07:55:03.773Z,77.68
2023-02-17T07:56:03.759Z,77.68
2023-02-17T07:57:03.754Z,77.65
2023-02-17T07:58:03.715Z,78.06
2023-02-17T07:59:03.703Z,77.89
2023-02-17T08:00:03.732Z,77.75
2023-02-17T08:01:03.686Z,77.65
2023-02-17T08:02:03.695Z,78.16
2023-02-17T08:03:03.702Z,77.85
2023-02-17T08:04:03.712Z,77.85
2023-02-17T08:05:03.631Z,77.85
2023-02-17T08:06:03.619Z,77.95
2023-02-17T08:07:03.611Z,78.27
2023-02-17T08:08:03.601Z,78.47
2023-02-17T08:09:03.578Z,78.06
2023-02-17T08:10:03.577Z,77.95
2023-02-17T08:11:03.565Z,78.16
2023-02-17T08:12:03.552Z,78.57
2023-02-17T08:13:03.543Z,78.67
2023-02-17T08:14:03.518Z,78.57
2023-02-17T08:15:03.527Z,78.78
2023-02-17T08:16:03.492Z,78.78
2023-02-17T08:17:03.473Z,78.57
2023-02-17T08:18:03.496Z,78.57
2023-02-17T08:19:03.483Z,78.57
2023-02-17T08:20:08.661Z,78.47
2023-02-17T08:21:03.789Z,78.74
2023-02-17T08:22:03.441Z,78.74
2023-02-17T08:23:03.424Z,79.25
2023-02-17T08:24:03.400Z,78.74
2023-02-17T08:25:03.396Z,78.23
2023-02-17T08:26:03.454Z,77.81
2023-02-17T08:27:03.350Z,77.98
2023-02-17T08:28:03.348Z,77.58
2023-02-17T08:29:03.327Z,77.68
2023-02-17T08:30:03.418Z,77.88
2023-02-17T08:31:03.474Z,77.68
2023-02-17T08:32:03.492Z,77.37
2023-02-17T08:33:03.266Z,77.58
2023-02-17T08:34:03.289Z,77.58
2023-02-17T08:35:03.302Z,77.68
2023-02-17T08:36:03.253Z,78.16
2023-02-17T08:37:03.232Z,77.74
2023-02-17T08:38:03.232Z,77.74
2023-02-17T08:39:03.189Z,77.44
2023-02-17T08:40:03.193Z,77.44
2023-02-17T08:41:03.171Z,77.64
2023-02-17T08:42:03.201Z,77.54
2023-02-17T08:43:03.774Z,77.95
2023-02-17T08:44:03.141Z,77.95
2023-02-17T08:45:03.173Z,77.84
2023-02-17T08:46:03.140Z,77.74
2023-02-17T08:47:03.136Z,77.23
2023-02-17T08:48:03.119Z,77.29
2023-02-17T08:49:03.080Z,77.50
2023-02-17T08:50:03.120Z,76.89
2023-02-17T08:51:03.066Z,76.58
2023-02-17T08:52:03.059Z,76.58
2023-02-17T08:53:03.032Z,77.20
2023-02-17T08:54:03.046Z,76.89
2023-02-17T08:55:02.998Z,76.78
2023-02-17T08:56:02.984Z,76.89
2023-02-17T08:57:03.000Z,77.13
2023-02-17T08:58:03.076Z,77.13
2023-02-17T08:59:02.961Z,77.33
2023-02-17T09:00:04.852Z,77.84
2023-02-17T09:01:03.020Z,78.46
2023-02-17T09:02:02.926Z,77.74
2023-02-17T09:03:02.972Z,77.84
2023-02-17T09:04:02.910Z,77.95
2023-02-17T09:05:02.914Z,78.05
2023-02-17T09:06:02.852Z,77.84
2023-02-17T09:07:02.889Z,78.67
2023-02-17T09:08:02.845Z,78.05
2023-02-17T09:09:02.865Z,78.05
2023-02-17T09:10:02.804Z,77.40
2023-02-17T09:11:02.853Z,77.71
2023-02-17T09:12:02.802Z,77.61
2023-02-17T09:13:02.768Z,77.40
2023-02-17T09:14:02.750Z,77.40
2023-02-17T09:15:02.743Z,77.50
2023-02-17T09:16:02.873Z,77.40
2023-02-17T09:17:02.715Z,77.40
2023-02-17T09:18:02.728Z,76.78
2023-02-17T09:19:02.745Z,76.27
2023-02-17T09:20:02.765Z,76.37
2023-02-17T09:21:02.725Z,77.09
2023-02-17T09:22:02.648Z,76.99
2023-02-17T09:23:02.745Z,76.99
2023-02-17T09:24:02.689Z,77.09
2023-02-17T09:25:02.648Z,77.13
2023-02-17T09:26:02.648Z,77.03
2023-02-17T09:27:02.643Z,77.23
2023-02-17T09:28:02.576Z,77.33
2023-02-17T09:29:02.574Z,77.33
2023-02-17T09:30:02.646Z,77.95
2023-02-17T09:31:02.650Z,77.74
2023-02-17T09:32:02.722Z,77.64
2023-02-17T09:33:02.540Z,77.95
2023-02-17T09:34:02.505Z,78.46
2023-02-17T09:35:02.525Z,78.25
2023-02-17T09:36:02.471Z,79.08
2023-02-17T09:37:02.466Z,78.56
2023-02-17T09:38:02.474Z,78.32
2023-02-17T09:39:02.497Z,77.71
2023-02-17T09:40:02.422Z,78.02
2023-02-17T09:41:02.404Z,78.22
2023-02-17T09:42:02.451Z,78.42
2023-02-17T09:43:02.394Z,77.91
2023-02-17T09:44:02.441Z,77.91
2023-02-17T09:45:02.442Z,77.98
2023-02-17T09:46:02.447Z,77.87
2023-02-17T09:47:02.971Z,77.16
2023-02-17T09:48:02.329Z,77.16
2023-02-17T09:49:02.376Z,76.85
2023-02-17T09:50:02.355Z,77.67
2023-02-17T09:51:02.304Z,77.47
2023-02-17T09:52:02.333Z,77.23
2023-02-17T09:53:02.276Z,76.72
2023-02-17T09:54:02.259Z,76.92
2023-02-17T09:55:02.245Z,76.57
2023-02-17T09:56:02.245Z,76.03
2023-02-17T09:57:02.205Z,75.48
2023-02-17T09:58:02.184Z,74.56
2023-02-17T09:59:02.217Z,74.66
2023-02-17T10:00:02.195Z,74.93
2023-02-17T10:01:02.237Z,74.87
2023-02-17T10:02:02.141Z,75.48
2023-02-17T10:03:02.115Z,76.30
2023-02-17T10:04:02.219Z,76.20
2023-02-17T10:05:02.197Z,76.40
2023-02-17T10:06:02.107Z,77.12
2023-02-17T10:07:02.073Z,77.36
2023-02-17T10:08:02.131Z,77.87
2023-02-17T10:09:02.135Z,78.08
2023-02-17T10:10:02.145Z,78.59
2023-02-17T10:11:02.036Z,78.72
2023-02-17T10:12:02.007Z,79.03
2023-02-17T10:13:02.028Z,79.64
2023-02-17T10:14:02.004Z,79.30
2023-02-17T10:15:01.976Z,79.30
2023-02-17T10:16:02.061Z,79.10
2023-02-17T10:17:01.953Z,79.57
2023-02-17T10:18:01.940Z,78.65
2023-02-17T10:19:01.961Z,78.00
2023-02-17T10:20:01.974Z,77.86
2023-02-17T10:21:01.901Z,77.97
2023-02-17T10:22:01.921Z,77.93
2023-02-17T10:23:01.898Z,76.97
2023-02-17T10:24:01.856Z,75.95
2023-02-17T10:25:01.864Z,75.54
2023-02-17T10:26:01.824Z,75.54
2023-02-17T10:27:01.931Z,75.95
2023-02-17T10:28:01.804Z,76.36
2023-02-17T10:29:01.789Z,76.50
2023-02-17T10:30:01.929Z,77.01
2023-02-17T10:31:02.015Z,77.15
2023-02-17T10:32:01.879Z,78.07
2023-02-17T10:33:01.790Z,78.11
2023-02-17T10:34:01.740Z,78.52
2023-02-17T10:35:01.764Z,78.82
2023-02-17T10:36:01.729Z,78.96
2023-02-17T10:37:01.733Z,79.27
2023-02-17T10:38:01.673Z,79.68
2023-02-17T10:39:01.667Z,80.22
2023-02-17T10:40:01.660Z,80.22
2023-02-17T10:41:01.637Z,80.53
2023-02-17T10:42:01.623Z,80.43
2023-02-17T10:43:01.621Z,80.53
2023-02-17T10:44:01.601Z,80.53
2023-02-17T10:45:01.658Z,80.94
2023-02-17T10:46:01.572Z,80.94
2023-02-17T10:47:01.560Z,80.53
2023-02-17T10:48:01.535Z,80.94
2023-02-17T10:49:01.529Z,80.43
2023-02-17T10:50:01.529Z,80.80
2023-02-17T10:51:01.503Z,80.69
2023-02-17T10:52:01.491Z,80.19
2023-02-17T10:53:01.478Z,80.49
2023-02-17T10:54:01.477Z,80.49
2023-02-17T10:55:06.429Z,80.19
2023-02-17T10:56:02.513Z,80.49
2023-02-17T10:57:01.433Z,80.60
2023-02-17T10:58:01.415Z,80.69
2023-02-17T10:59:01.415Z,80.63
2023-02-17T11:00:01.385Z,80.94
2023-02-17T11:01:01.419Z,81.35
2023-02-17T11:02:01.372Z,81.45
2023-02-17T11:03:01.344Z,81.45
2023-02-17T11:04:01.416Z,81.76
2023-02-17T11:05:01.332Z,81.45
2023-02-17T11:06:01.306Z,81.56
2023-02-17T11:07:01.299Z,81.45
2023-02-17T11:08:01.280Z,81.86
2023-02-17T11:09:01.274Z,81.65
2023-02-17T11:10:01.250Z,81.76
2023-02-17T11:11:01.256Z,81.86
2023-02-17T11:12:01.241Z,81.86
2023-02-17T11:13:01.223Z,81.65
2023-02-17T11:14:01.212Z,81.86
2023-02-17T11:15:01.211Z,82.03
2023-02-17T11:16:01.224Z,81.62
2023-02-17T11:17:01.162Z,81.45
2023-02-17T11:18:01.160Z,81.76
2023-02-17T11:19:01.137Z,81.76
2023-02-17T11:20:01.134Z,82.17
2023-02-17T11:21:01.121Z,81.65
2023-02-17T11:22:01.100Z,82.07
2023-02-17T11:23:01.091Z,82.27
2023-02-17T11:24:01.100Z,82.48
2023-02-17T11:25:01.070Z,82.68
2023-02-17T11:26:01.046Z,82.57
2023-02-17T11:27:01.046Z,82.98
2023-02-17T11:28:01.029Z,83.09
2023-02-17T11:29:01.015Z,83.39
2023-02-17T11:30:01.032Z,83.50
2023-02-17T11:31:01.048Z,83.70
2023-02-17T11:32:01.075Z,83.91
2023-02-17T11:33:00.967Z,83.91
2023-02-17T11:34:00.947Z,84.01
2023-02-17T11:35:00.951Z,84.01
2023-02-17T11:36:00.936Z,84.31
2023-02-17T11:37:00.929Z,83.60
2023-02-17T11:38:00.912Z,84.11
2023-02-17T11:39:00.901Z,83.91
2023-02-17T11:40:00.886Z,83.76
2023-02-17T11:41:00.892Z,83.29
2023-02-17T11:42:00.845Z,83.05
2023-02-17T11:43:00.851Z,83.05
2023-02-17T11:44:00.862Z,82.84
2023-02-17T11:45:00.820Z,82.23
2023-02-17T11:46:01.122Z,81.93
2023-02-17T11:47:00.813Z,82.34
2023-02-17T11:48:00.768Z,82.23
2023-02-17T11:49:00.759Z,81.93
2023-02-17T11:50:00.746Z,81.82
2023-02-17T11:51:00.737Z,82.03
2023-02-17T11:52:00.716Z,82.13
2023-02-17T11:53:00.711Z,82.13
2023-02-17T11:54:00.700Z,82.23
2023-02-17T11:55:00.686Z,81.68
2023-02-17T11:56:00.673Z,81.68
2023-02-17T11:57:00.666Z,81.88
2023-02-17T11:58:00.643Z,82.09
2023-02-17T11:59:00.626Z,81.58
2023-02-17T12:00:00.630Z,81.88
2023-02-17T12:01:00.603Z,81.17
2023-02-17T12:02:00.601Z,81.44
2023-02-17T12:03:00.641Z,80.83
2023-02-17T12:04:00.568Z,80.93
2023-02-17T12:05:00.656Z,81.44
2023-02-17T12:06:00.536Z,81.03
2023-02-17T12:07:00.525Z,80.32
2023-02-17T12:08:00.506Z,80.87
2023-02-17T12:09:00.500Z,80.87
2023-02-17T12:10:00.501Z,80.66
2023-02-17T12:11:00.460Z,81.27
2023-02-17T12:12:00.454Z,81.68
2023-02-17T12:13:00.445Z,81.24
2023-02-17T12:14:00.431Z,81.13
2023-02-17T12:15:00.428Z,80.11
2023-02-17T12:16:00.412Z,80.42
2023-02-17T12:17:00.396Z,80.32
2023-02-17T12:18:00.374Z,80.62
2023-02-17T12:19:00.388Z,80.42
2023-02-17T12:20:00.346Z,80.32
2023-02-17T12:21:00.335Z,80.42
2023-02-17T12:22:00.321Z,80.01
2023-02-17T12:23:00.307Z,79.80
2023-02-17T12:24:00.297Z,80.28
2023-02-17T12:25:00.291Z,80.38
2023-02-17T12:26:00.271Z,80.07
2023-02-17T12:27:00.264Z,79.57
2023-02-17T12:28:00.247Z,79.36
2023-02-17T12:29:00.237Z,79.66
2023-02-17T12:30:00.310Z,79.66
2023-02-17T12:31:00.415Z,79.57
2023-02-17T12:32:00.437Z,79.77
2023-02-17T12:33:00.186Z,79.46
2023-02-17T12:34:00.178Z,79.57
2023-02-17T12:35:00.175Z,79.87
2023-02-17T12:36:00.161Z,80.07
2023-02-17T12:37:00.135Z,79.57
2023-02-17T12:38:00.125Z,79.05
2023-02-17T12:39:00.123Z,79.36
2023-02-17T12:40:00.116Z,79.66
2023-02-17T12:41:00.137Z,79.87
2023-02-17T12:42:00.098Z,79.25
2023-02-17T12:43:00.097Z,79.52
2023-02-17T12:44:00.068Z,79.05
2023-02-17T12:45:00.034Z,79.22
2023-02-17T12:46:00.063Z,79.25
2023-02-17T12:47:00.010Z,79.46
2023-02-17T12:47:59.989Z,79.87
2023-02-17T12:48:59.977Z,79.87
2023-02-17T12:49:59.965Z,79.97
2023-02-17T12:50:59.980Z,79.57
2023-02-17T12:51:59.952Z,80.28